Terminal Aerodrome Forecast
Issued by NWS Charleston, SC

Home | Current Version | Previous Version | Text Only | Print | Product List | Glossary On
Versions: 1 2 3 4 5 6 7 8 9 10 11 12 13 14 15 16 17
000
FTUS42 KCHS 231334 AAB
TAFSAV
TAF AMD
KSAV 231334Z 2314/2412 23009KT P6SM BKN010
     FM231415 23007KT P6SM VCSH SCT025
     FM231900 21011KT P6SM SCT040
     FM240100 20008KT P6SM SCT025 BKN250=

USA.gov is the U.S. government's official web portal to all federal, state and local government web resources and services.